METAR Data
IDs: Format: Raw Decoded Include TAF

Data at: 0242 UTC 15 Aug 2020

METAR for:KHGR (Hagerstown Rgnl, MD, US)
Text:KHGR 150153Z 11005KT 10SM CLR 26/19 A3000
Temperature: 26.0°C ( 79°F)
Dewpoint: 19.0°C ( 66°F) [RH = 65%]
Pressure (altimeter):30.00 inches Hg (1016.0 mb)
Winds:from the ESE (110 degrees) at 6 MPH (5 knots; 2.6 m/s)
Visibility:10 or more sm (16+ km)
Ceiling:at least 12,000 feet AGL
Clouds:sky clear below 12,000 feet AGL